Time;durP1;ratioP1;P1;durP2;ratioP2;P2;SDS_P1;SDS_P2;PMS_P1;PMS_P2;Temp;Humidity;BMP_temperature;BMP_pressure;BME280_temperature;BME280_humidity;BME280_pressure;Samples;Min_cycle;Max_cycle;Signal;HPM_P1;HPM_P2
2023/09/25 00:00:33;;;;;;;1.87;1.67;;;20.60;62.50;21.50;101444.00;;;;5012936;28;20180;-48
2023/09/25 00:02:59;;;;;;;1.90;1.70;;;20.60;62.70;21.50;101451.00;;;;5011953;28;20179;-48
2023/09/25 00:05:26;;;;;;;1.60;1.40;;;20.60;62.70;21.50;101441.00;;;;5011835;28;20253;-49
2023/09/25 00:07:52;;;;;;;1.83;1.70;;;20.60;62.70;21.50;101443.00;;;;5011629;28;20294;-48
2023/09/25 00:10:18;;;;;;;1.70;1.60;;;20.50;63.30;21.50;101435.00;;;;5010459;28;20199;-48
2023/09/25 00:12:44;;;;;;;1.70;1.60;;;20.60;62.80;21.40;101434.00;;;;5011957;28;20234;-49
2023/09/25 00:15:10;;;;;;;1.67;1.57;;;20.50;62.60;21.40;101426.00;;;;5010694;28;20211;-48
2023/09/25 00:17:38;;;;;;;3.17;1.60;;;20.50;62.70;21.40;101426.00;;;;5011508;28;20207;-49
2023/09/25 00:20:04;;;;;;;1.60;1.50;;;20.50;62.70;21.40;101392.00;;;;5011766;28;20199;-49
2023/09/25 00:22:33;;;;;;;1.43;1.33;;;20.50;62.70;21.40;101417.00;;;;5010384;28;20227;-49
2023/09/25 00:24:59;;;;;;;1.77;1.67;;;20.50;62.70;21.30;101417.00;;;;5010621;28;20176;-49
2023/09/25 00:27:26;;;;;;;1.50;1.40;;;20.50;62.70;21.30;101415.00;;;;5011368;28;20224;-48
2023/09/25 00:29:52;;;;;;;1.70;1.60;;;20.50;62.60;21.30;101412.00;;;;5011473;28;20289;-49
2023/09/25 00:32:18;;;;;;;1.60;1.50;;;20.40;62.50;21.30;101418.00;;;;5011042;28;20218;-48
2023/09/25 00:34:43;;;;;;;1.63;1.53;;;20.40;62.60;21.30;101419.00;;;;5011252;28;20186;-50
2023/09/25 00:37:09;;;;;;;1.40;1.30;;;20.40;62.60;21.30;101432.00;;;;5011335;28;20314;-48
2023/09/25 00:39:35;;;;;;;1.33;1.33;;;20.40;62.60;21.30;101288.00;;;;5011441;28;20754;-48
2023/09/25 00:42:00;;;;;;;1.60;1.50;;;20.40;62.50;21.20;101431.00;;;;5011651;28;20199;-48
2023/09/25 00:44:26;;;;;;;1.77;1.67;;;20.40;62.60;21.20;101418.00;;;;5011250;28;20230;-49
2023/09/25 00:46:52;;;;;;;1.37;1.27;;;20.40;62.60;21.20;101441.00;;;;5011107;28;20251;-49
2023/09/25 00:49:18;;;;;;;1.40;1.40;;;20.30;62.40;21.20;101432.00;;;;5011002;28;20187;-49
2023/09/25 00:51:44;;;;;;;1.63;1.53;;;20.40;62.60;21.00;101440.00;;;;5009604;28;20204;-47
2023/09/25 00:54:11;;;;;;;1.60;1.50;;;20.30;62.50;21.20;101440.00;;;;5011248;28;20210;-48
2023/09/25 00:56:37;;;;;;;1.60;1.50;;;20.30;62.50;21.20;101435.00;;;;4993368;28;20234;-48
2023/09/25 00:59:02;;;;;;;1.77;1.67;;;20.30;62.50;21.20;101423.00;;;;4993570;28;20288;-48
2023/09/25 01:01:28;;;;;;;1.33;1.23;;;20.30;62.50;21.10;101432.00;;;;5009004;28;20596;-48
2023/09/25 01:03:54;;;;;;;1.80;1.70;;;20.30;62.50;21.10;101422.00;;;;5009989;28;20629;-48
2023/09/25 01:06:20;;;;;;;1.50;1.40;;;20.30;62.50;21.10;101431.00;;;;5030968;28;20187;-48
2023/09/25 01:08:46;;;;;;;1.53;1.43;;;20.30;62.40;21.10;101422.00;;;;5015050;28;20184;-47
2023/09/25 01:11:12;;;;;;;1.60;1.50;;;20.30;62.50;21.10;101428.00;;;;5011729;28;20203;-48
2023/09/25 01:13:37;;;;;;;1.70;1.60;;;20.20;62.40;21.10;101412.00;;;;5011406;28;20657;-49
2023/09/25 01:16:04;;;;;;;1.50;1.40;;;20.20;62.30;21.10;101439.00;;;;5011521;28;20237;-48
2023/09/25 01:18:29;;;;;;;1.60;1.50;;;20.20;62.30;21.00;101442.00;;;;5011987;28;20206;-49
2023/09/25 01:20:55;;;;;;;1.60;1.50;;;20.20;62.40;21.00;101440.00;;;;5030821;28;20207;-49
2023/09/25 01:23:21;;;;;;;1.70;1.60;;;20.20;62.30;21.00;101439.00;;;;4977890;28;20182;-49
2023/09/25 01:25:47;;;;;;;1.60;1.50;;;20.20;62.40;21.00;101430.00;;;;5010994;28;20182;-49
2023/09/25 01:28:13;;;;;;;1.50;1.40;;;20.20;62.50;21.00;101412.00;;;;5009096;28;20614;-49
2023/09/25 01:30:38;;;;;;;1.50;1.40;;;20.10;62.30;20.90;101426.00;;;;5010335;28;20598;-49
2023/09/25 01:33:04;;;;;;;1.30;1.30;;;20.10;62.30;20.90;101426.00;;;;5010592;28;20207;-49
2023/09/25 01:35:30;;;;;;;1.30;1.20;;;20.10;62.30;20.90;101430.00;;;;5010518;28;20191;-48
2023/09/25 01:38:05;;;;;;;1.60;1.50;;;20.10;62.30;20.90;101435.00;;;;5010339;28;20686;-49
2023/09/25 01:40:31;;;;;;;1.57;1.47;;;20.10;62.40;20.90;101380.00;;;;5010115;28;20791;-48
2023/09/25 01:42:57;;;;;;;1.50;1.40;;;20.10;62.50;20.90;101436.00;;;;5008877;28;20194;-48
2023/09/25 01:45:23;;;;;;;1.40;1.40;;;20.00;62.30;20.90;101428.00;;;;5010039;28;20188;-49
2023/09/25 01:47:50;;;;;;;1.50;1.40;;;20.10;62.30;20.80;101433.00;;;;5009755;28;20201;-48
2023/09/25 01:50:18;;;;;;;1.60;1.50;;;20.00;62.30;20.80;101434.00;;;;5008650;28;20722;-48
2023/09/25 01:52:48;;;;;;;1.50;1.40;;;20.00;62.30;20.80;101414.00;;;;5009717;28;20300;-49
2023/09/25 01:55:14;;;;;;;1.70;1.60;;;20.00;62.30;20.80;101423.00;;;;5008711;28;20233;-48
2023/09/25 01:57:40;;;;;;;1.40;1.30;;;20.00;62.30;20.80;101418.00;;;;5009790;28;20214;-48
2023/09/25 02:00:09;;;;;;;1.80;1.70;;;20.00;62.20;20.80;101421.00;;;;5009855;28;20249;-50
2023/09/25 02:02:40;;;;;;;1.67;1.57;;;20.00;62.30;20.80;101422.00;;;;5009693;28;20287;-49
2023/09/25 02:05:06;;;;;;;1.23;1.23;;;20.00;62.30;20.80;101420.00;;;;5009092;28;20680;-49
2023/09/25 02:07:32;;;;;;;1.60;1.50;;;20.00;62.30;20.70;101412.00;;;;5009228;28;20258;-49
2023/09/25 02:09:59;;;;;;;1.60;1.50;;;19.90;62.20;20.70;101420.00;;;;5008666;28;20186;-49
2023/09/25 02:12:25;;;;;;;1.70;1.60;;;19.90;62.10;20.70;101419.00;;;;5010154;28;20286;-49
2023/09/25 02:14:52;;;;;;;1.80;1.70;;;19.90;62.30;20.70;101375.00;;;;5008476;28;20207;-48
2023/09/25 02:17:18;;;;;;;1.27;1.23;;;19.90;62.10;20.70;101428.00;;;;4992082;28;20214;-48
2023/09/25 02:19:44;;;;;;;1.63;1.53;;;19.90;62.20;20.70;101430.00;;;;4993540;28;20194;-48
2023/09/25 02:22:10;;;;;;;1.63;1.53;;;19.90;62.30;20.70;101428.00;;;;5014061;28;20807;-57
2023/09/25 02:24:37;;;;;;;1.70;1.60;;;19.90;62.20;20.70;101415.00;;;;5011753;28;20175;-48
2023/09/25 02:27:03;;;;;;;1.50;1.40;;;19.90;62.20;20.70;101423.00;;;;4991774;28;20195;-49
2023/09/25 02:29:29;;;;;;;1.60;1.50;;;19.80;62.00;20.60;101426.00;;;;4991697;28;20190;-48
2023/09/25 02:31:55;;;;;;;1.30;1.30;;;19.80;62.30;20.60;101421.00;;;;4991529;28;20203;-48
2023/09/25 02:34:21;;;;;;;1.27;1.27;;;19.80;62.30;20.60;101412.00;;;;5009347;28;20269;-51
2023/09/25 02:36:46;;;;;;;1.50;1.40;;;19.80;62.30;20.60;101422.00;;;;5007843;28;20201;-50
2023/09/25 02:39:15;;;;;;;1.37;1.37;;;19.80;62.50;20.60;101429.00;;;;5009427;28;20261;-51
2023/09/25 02:41:41;;;;;;;1.33;1.30;;;19.70;62.30;20.60;101433.00;;;;5007793;28;20535;-51
2023/09/25 02:44:07;;;;;;;1.60;1.50;;;19.80;62.50;20.60;101431.00;;;;4975652;28;20192;-51
2023/09/25 02:46:32;;;;;;;1.80;1.47;;;19.80;62.50;20.60;101433.00;;;;5007883;28;20204;-49
2023/09/25 02:48:58;;;;;;;1.60;1.50;;;19.80;62.40;20.50;101431.00;;;;5007846;28;20538;-49
2023/09/25 02:51:24;;;;;;;1.83;1.60;;;19.70;62.30;20.50;101436.00;;;;5007867;28;20289;-48
2023/09/25 02:53:52;;;;;;;1.70;1.60;;;19.70;62.40;20.50;101438.00;;;;5007892;28;20337;-48
2023/09/25 02:56:18;;;;;;;1.60;1.50;;;19.80;62.50;20.50;101439.00;;;;5009111;28;20673;-48
2023/09/25 02:58:44;;;;;;;1.50;1.40;;;19.70;62.40;20.50;101445.00;;;;5007677;28;20214;-47
2023/09/25 03:01:09;;;;;;;1.50;1.40;;;19.70;62.40;20.50;101444.00;;;;5009291;28;20251;-48
2023/09/25 03:03:35;;;;;;;2.53;1.67;;;19.70;62.50;20.50;101454.00;;;;5026083;28;20190;-48
2023/09/25 03:06:01;;;;;;;1.27;1.27;;;19.70;62.30;20.50;101457.00;;;;5019088;28;20524;-48
2023/09/25 03:08:27;;;;;;;1.50;1.40;;;19.70;62.30;20.50;101445.00;;;;5010648;28;20178;-50
2023/09/25 03:10:52;;;;;;;1.70;1.60;;;19.70;62.30;20.50;101454.00;;;;5010570;28;20206;-49
2023/09/25 03:13:18;;;;;;;2.83;1.60;;;19.70;62.30;20.50;101474.00;;;;5010936;28;20182;-48
2023/09/25 03:15:44;;;;;;;2.23;1.60;;;19.70;62.30;20.50;101459.00;;;;5003292;28;20184;-48
2023/09/25 03:18:11;;;;;;;1.90;1.40;;;19.70;62.40;20.50;101461.00;;;;5026704;28;20226;-49
2023/09/25 03:20:38;;;;;;;2.27;1.50;;;19.70;62.30;20.50;101472.00;;;;5014168;28;20186;-48
2023/09/25 03:23:04;;;;;;;2.37;1.50;;;19.70;62.30;20.40;101477.00;;;;5009834;28;20209;-49
2023/09/25 03:25:34;;;;;;;1.40;1.37;;;19.70;62.20;20.40;101470.00;;;;5009272;28;20263;-48
2023/09/25 03:28:00;;;;;;;1.50;1.40;;;19.70;62.30;20.40;101472.00;;;;4992145;28;20187;-49
2023/09/25 03:30:26;;;;;;;1.60;1.50;;;19.60;62.10;20.40;101486.00;;;;5009298;28;20266;-49
2023/09/25 03:32:54;;;;;;;1.60;1.50;;;19.60;62.20;20.40;101476.00;;;;5004661;28;20172;-49
2023/09/25 03:35:23;;;;;;;2.70;1.70;;;19.60;62.30;20.40;101472.00;;;;5007892;28;20333;-48
2023/09/25 03:37:48;;;;;;;1.73;1.60;;;19.60;62.20;20.40;101463.00;;;;5007034;28;20217;-48
2023/09/25 03:40:14;;;;;;;1.60;1.50;;;19.60;62.20;20.40;101443.00;;;;5008904;28;20181;-48
2023/09/25 03:42:41;;;;;;;1.60;1.50;;;19.60;63.00;20.40;101469.00;;;;5008614;28;20691;-48
2023/09/25 03:45:07;;;;;;;1.63;1.53;;;19.70;62.40;20.40;101461.00;;;;5008947;28;20181;-47
2023/09/25 03:47:34;;;;;;;1.80;1.67;;;19.60;62.30;20.40;101468.00;;;;5008334;28;20188;-47
2023/09/25 03:50:03;;;;;;;2.00;1.50;;;19.60;62.30;20.40;101471.00;;;;5009029;28;20188;-47
2023/09/25 03:52:29;;;;;;;1.90;1.50;;;19.60;62.30;20.40;101477.00;;;;5008957;28;20202;-48
2023/09/25 03:54:55;;;;;;;2.77;1.63;;;19.60;62.30;20.40;101486.00;;;;5008923;28;20191;-48
2023/09/25 03:57:20;;;;;;;1.60;1.50;;;19.60;62.30;20.30;101482.00;;;;5008453;28;20230;-48
2023/09/25 03:59:46;;;;;;;1.60;1.50;;;19.60;62.30;20.30;101488.00;;;;5009000;28;20948;-48
2023/09/25 04:02:12;;;;;;;1.10;1.10;;;19.60;62.30;20.30;101479.00;;;;4990894;28;20210;-48
2023/09/25 04:04:38;;;;;;;1.57;1.40;;;19.60;62.40;20.30;101496.00;;;;5006971;28;20179;-48
2023/09/25 04:07:04;;;;;;;1.70;1.60;;;19.50;62.30;20.30;101491.00;;;;5007713;28;20186;-49
2023/09/25 04:09:30;;;;;;;1.60;1.50;;;19.60;62.40;20.30;101478.00;;;;5007308;28;20183;-48
2023/09/25 04:11:57;;;;;;;1.47;1.37;;;19.50;62.30;20.30;101477.00;;;;4991289;28;20200;-48
2023/09/25 04:14:23;;;;;;;1.60;1.50;;;19.50;62.30;20.30;101481.00;;;;5008129;28;20265;-48
2023/09/25 04:16:49;;;;;;;1.90;1.60;;;19.50;62.30;20.30;101488.00;;;;5007046;28;20418;-48
2023/09/25 04:19:15;;;;;;;1.50;1.40;;;19.50;62.30;20.30;101493.00;;;;5008390;28;20717;-48
2023/09/25 04:21:41;;;;;;;1.30;1.20;;;19.50;62.30;20.30;101490.00;;;;5008679;28;20247;-48
2023/09/25 04:24:10;;;;;;;1.37;1.30;;;19.50;62.30;20.20;101482.00;;;;5008526;28;20196;-48
2023/09/25 04:26:39;;;;;;;1.87;1.50;;;19.50;62.40;20.20;101490.00;;;;5008448;28;20580;-48
2023/09/25 04:29:05;;;;;;;2.23;1.27;;;19.50;62.40;20.20;101491.00;;;;5009216;28;20185;-48
2023/09/25 04:31:32;;;;;;;2.13;1.50;;;19.50;62.40;20.20;101490.00;;;;5008710;28;20229;-48
2023/09/25 04:33:58;;;;;;;4.50;1.60;;;19.50;62.40;20.20;101508.00;;;;5008596;28;20223;-47
2023/09/25 04:36:23;;;;;;;2.43;1.60;;;19.50;62.50;20.20;101497.00;;;;5008072;28;20208;-49
2023/09/25 04:38:49;;;;;;;1.80;1.57;;;19.40;62.50;20.20;101498.00;;;;5010393;28;20268;-49
2023/09/25 04:41:15;;;;;;;4.37;1.80;;;19.50;62.60;20.20;101469.00;;;;5011754;28;20281;-49
2023/09/25 04:43:41;;;;;;;7.03;1.90;;;19.50;62.60;20.20;101487.00;;;;5011719;28;20185;-49
2023/09/25 04:46:06;;;;;;;2.70;1.60;;;19.40;62.60;20.20;101494.00;;;;5011921;28;20573;-48
2023/09/25 04:48:32;;;;;;;7.33;1.77;;;19.50;62.70;20.20;101426.00;;;;5011240;28;20180;-49
2023/09/25 04:50:58;;;;;;;3.13;1.93;;;19.50;62.70;20.20;101502.00;;;;5011737;28;20199;-49
2023/09/25 04:53:24;;;;;;;6.07;1.90;;;19.50;62.90;20.20;101498.00;;;;5012035;28;20183;-48
2023/09/25 04:55:50;;;;;;;5.20;1.80;;;19.40;62.80;20.20;101497.00;;;;5011928;28;20187;-48
2023/09/25 04:58:16;;;;;;;2.67;1.63;;;19.40;62.80;19.90;101489.00;;;;5011841;28;20203;-48
2023/09/25 05:00:44;;;;;;;1.90;1.70;;;19.40;62.90;20.10;101481.00;;;;5027541;28;20198;-48
2023/09/25 05:03:10;;;;;;;1.97;1.63;;;19.40;62.90;20.10;101490.00;;;;5019562;28;20176;-48
2023/09/25 05:05:35;;;;;;;2.17;1.70;;;19.40;62.90;20.10;101492.00;;;;5012829;28;20185;-48
2023/09/25 05:08:02;;;;;;;2.57;1.80;;;19.40;63.00;20.10;101491.00;;;;5012062;28;20650;-48
2023/09/25 05:10:28;;;;;;;3.00;1.70;;;19.40;63.00;20.10;101499.00;;;;5011801;28;20188;-49
2023/09/25 05:12:54;;;;;;;3.67;1.80;;;19.40;63.00;20.10;101496.00;;;;5012697;28;20180;-48
2023/09/25 05:15:20;;;;;;;2.43;1.60;;;19.40;63.10;20.10;101501.00;;;;5025445;28;20185;-49
2023/09/25 05:17:46;;;;;;;1.97;1.70;;;19.30;63.00;20.10;101491.00;;;;5012062;28;20226;-48
2023/09/25 05:20:18;;;;;;;3.37;2.10;;;19.30;63.00;20.10;101485.00;;;;5011515;28;20205;-48
2023/09/25 05:22:52;;;;;;;2.93;1.60;;;19.30;63.10;20.10;101483.00;;;;5010276;28;20211;-52
2023/09/25 05:25:18;;;;;;;1.70;1.60;;;19.30;63.10;20.00;101487.00;;;;5010849;28;20181;-48
2023/09/25 05:27:49;;;;;;;1.70;1.60;;;19.30;63.20;20.00;101494.00;;;;5010829;28;20193;-47
2023/09/25 05:30:17;;;;;;;1.70;1.60;;;19.30;63.30;20.00;101500.00;;;;5011195;28;20181;-48
2023/09/25 05:32:48;;;;;;;1.77;1.67;;;19.30;63.20;20.00;101498.00;;;;5010822;28;20290;-49
2023/09/25 05:35:14;;;;;;;1.70;1.60;;;19.30;63.10;20.00;101501.00;;;;5009793;28;20188;-48
2023/09/25 05:37:41;;;;;;;1.70;1.53;;;19.30;63.10;20.00;101499.00;;;;5010684;28;20196;-48
2023/09/25 05:40:09;;;;;;;2.83;1.80;;;19.30;63.20;20.00;101491.00;;;;5011045;28;20553;-48
2023/09/25 05:42:36;;;;;;;1.63;1.53;;;19.20;63.10;20.00;101494.00;;;;5010679;28;20773;-48
2023/09/25 05:45:03;;;;;;;2.97;1.60;;;19.20;63.10;20.00;101489.00;;;;5009366;28;20177;-48
2023/09/25 05:47:28;;;;;;;2.03;1.60;;;19.20;63.10;19.90;101490.00;;;;5009349;28;20191;-47
2023/09/25 05:49:54;;;;;;;1.53;1.43;;;19.20;63.10;19.90;101486.00;;;;5010716;28;20189;-47
2023/09/25 05:52:20;;;;;;;2.07;1.63;;;19.20;63.10;19.90;101484.00;;;;5010640;28;20199;-48
2023/09/25 05:54:46;;;;;;;1.90;1.60;;;19.20;63.10;19.90;101494.00;;;;5010132;28;20218;-48
2023/09/25 05:57:12;;;;;;;3.30;1.77;;;19.20;63.10;19.90;101487.00;;;;5010360;28;20211;-48
2023/09/25 05:59:37;;;;;;;5.80;2.00;;;19.20;63.10;19.90;101486.00;;;;5010303;28;20246;-49
2023/09/25 06:02:03;;;;;;;5.70;1.90;;;19.20;63.10;19.90;101490.00;;;;5010382;28;20270;-48
2023/09/25 06:04:29;;;;;;;4.43;1.80;;;19.10;63.10;19.90;101488.00;;;;5010821;28;20685;-48
2023/09/25 06:06:55;;;;;;;4.33;1.63;;;19.20;63.20;19.90;101477.00;;;;5013325;28;20654;-49
2023/09/25 06:09:22;;;;;;;3.00;1.90;;;19.10;63.10;19.90;101478.00;;;;5014580;28;20219;-47
2023/09/25 06:11:48;;;;;;;4.30;1.90;;;19.20;63.10;19.90;101481.00;;;;5011646;28;20200;-48
2023/09/25 06:14:14;;;;;;;3.57;1.90;;;19.10;63.20;19.90;101483.00;;;;4991552;28;20193;-48
2023/09/25 06:16:40;;;;;;;2.20;1.97;;;19.10;63.10;19.90;101492.00;;;;5009670;28;20204;-48
2023/09/25 06:19:06;;;;;;;2.83;1.90;;;19.10;63.10;19.80;101487.00;;;;5009985;28;20199;-48
2023/09/25 06:21:35;;;;;;;2.07;1.80;;;19.10;63.10;19.80;101494.00;;;;5010118;28;20274;-48
2023/09/25 06:24:03;;;;;;;2.03;1.80;;;19.10;63.20;19.80;101486.00;;;;5009536;28;20179;-48
2023/09/25 06:26:29;;;;;;;2.97;1.73;;;19.10;63.30;19.80;101497.00;;;;5010062;28;20177;-47
2023/09/25 06:28:55;;;;;;;3.70;1.83;;;19.10;63.30;19.80;101487.00;;;;5009900;28;20172;-47
2023/09/25 06:31:23;;;;;;;3.80;1.63;;;19.10;64.10;19.80;101493.00;;;;5009745;28;20198;-49
2023/09/25 06:33:50;;;;;;;10.23;2.00;;;19.00;63.40;19.80;101496.00;;;;5009488;28;20211;-48
2023/09/25 06:36:16;;;;;;;6.73;2.50;;;19.10;63.50;19.80;101500.00;;;;5009637;28;20814;-48
2023/09/25 06:38:41;;;;;;;8.33;2.20;;;19.10;63.80;19.80;101501.00;;;;5008549;28;20171;-48
2023/09/25 06:41:11;;;;;;;8.23;2.50;;;19.00;64.00;19.80;101499.00;;;;5008115;28;20198;-49
2023/09/25 06:43:37;;;;;;;10.37;2.37;;;19.00;63.90;19.80;101495.00;;;;5007386;28;20702;-48
2023/09/25 06:46:03;;;;;;;6.53;2.20;;;19.10;63.90;19.50;101496.00;;;;5006392;28;20169;-49
2023/09/25 06:48:32;;;;;;;5.20;2.20;;;19.10;64.10;19.80;101488.00;;;;5007693;28;20233;-49
2023/09/25 06:50:58;;;;;;;8.37;2.43;;;19.10;64.60;19.80;101492.00;;;;5008537;28;20314;-52
2023/09/25 06:53:23;;;;;;;7.20;2.27;;;19.10;64.70;19.80;101493.00;;;;5009856;28;20714;-52
2023/09/25 06:55:49;;;;;;;7.37;2.10;;;19.10;64.80;19.80;101494.00;;;;5008312;28;20259;-51
2023/09/25 06:58:15;;;;;;;7.33;2.60;;;19.10;65.30;19.80;101495.00;;;;5019325;28;20234;-51
2023/09/25 07:00:43;;;;;;;6.03;2.00;;;19.10;65.00;19.80;101500.00;;;;5017471;28;20255;-53
2023/09/25 07:03:09;;;;;;;5.40;2.20;;;19.00;64.90;19.80;101491.00;;;;5008776;28;20171;-51
2023/09/25 07:05:35;;;;;;;5.93;2.10;;;19.10;65.00;19.80;101497.00;;;;5010045;28;20219;-51
2023/09/25 07:08:01;;;;;;;5.30;2.10;;;19.10;65.20;19.80;101496.00;;;;4991660;28;20773;-50
2023/09/25 07:10:26;;;;;;;6.17;2.20;;;19.10;66.00;19.80;101497.00;;;;5012194;28;20173;-51
2023/09/25 07:12:52;;;;;;;8.30;2.33;;;19.10;65.30;19.80;101499.00;;;;5027236;28;20188;-51
2023/09/25 07:15:19;;;;;;;8.17;2.60;;;19.10;65.60;19.80;101501.00;;;;5008573;28;20745;-54
2023/09/25 07:17:47;;;;;;;6.07;2.20;;;19.10;65.60;19.80;101502.00;;;;4991482;28;20207;-50
2023/09/25 07:20:12;;;;;;;8.13;2.20;;;19.10;65.60;19.80;101498.00;;;;5009150;28;20187;-51
2023/09/25 07:22:38;;;;;;;6.17;2.23;;;19.10;65.60;19.80;101504.00;;;;5009525;28;20700;-51
2023/09/25 07:25:04;;;;;;;3.50;2.33;;;19.00;65.40;19.80;101498.00;;;;5009411;28;20636;-52
2023/09/25 07:27:32;;;;;;;6.77;2.50;;;19.00;65.50;19.80;101492.00;;;;5009060;28;20192;-52
2023/09/25 07:29:59;;;;;;;6.47;2.20;;;19.00;65.40;19.80;101492.00;;;;4992120;28;20175;-52
2023/09/25 07:32:24;;;;;;;4.73;2.27;;;19.00;65.40;19.80;101489.00;;;;5008880;28;20207;-51
2023/09/25 07:34:51;;;;;;;4.53;2.13;;;19.00;65.50;19.80;101495.00;;;;5009402;28;20179;-51
2023/09/25 07:37:17;;;;;;;4.30;2.20;;;19.00;65.60;19.80;101497.00;;;;4991770;28;20210;-52
2023/09/25 07:39:43;;;;;;;5.57;2.23;;;19.00;65.60;19.80;101486.00;;;;5008890;28;20659;-51
2023/09/25 07:42:10;;;;;;;4.77;2.20;;;19.00;65.60;19.80;101494.00;;;;5009102;28;20196;-51
2023/09/25 07:44:36;;;;;;;2.97;1.93;;;19.00;65.60;19.80;101486.00;;;;5009227;28;20739;-51
2023/09/25 07:47:07;;;;;;;3.03;2.03;;;19.00;65.60;19.80;101484.00;;;;5007924;28;20176;-51
2023/09/25 07:49:38;;;;;;;2.93;2.03;;;19.00;65.60;19.80;101488.00;;;;5008081;28;20682;-52
2023/09/25 07:52:11;;;;;;;4.83;2.00;;;19.00;65.60;19.80;101484.00;;;;5009640;28;20208;-51
2023/09/25 07:54:37;;;;;;;3.67;2.10;;;19.00;65.70;19.80;101482.00;;;;4992967;28;20199;-51
2023/09/25 07:57:02;;;;;;;2.93;2.00;;;19.00;65.60;19.80;101482.00;;;;5008155;28;20200;-51
2023/09/25 07:59:28;;;;;;;4.33;2.00;;;19.00;65.60;19.80;101489.00;;;;5009374;28;20546;-51
2023/09/25 08:01:55;;;;;;;3.87;1.90;;;19.00;65.70;19.80;101494.00;;;;5009275;28;20199;-51
2023/09/25 08:04:21;;;;;;;3.13;1.90;;;19.00;65.60;19.80;101492.00;;;;5009274;28;20176;-51
2023/09/25 08:06:46;;;;;;;4.03;1.90;;;18.90;65.50;19.80;101495.00;;;;5008932;28;20720;-51
2023/09/25 08:09:13;;;;;;;2.60;1.97;;;18.90;65.50;19.80;101483.00;;;;5008908;28;20222;-51
2023/09/25 08:11:39;;;;;;;4.73;2.10;;;18.90;65.60;19.80;101503.00;;;;5010458;28;20278;-51
2023/09/25 08:14:05;;;;;;;2.37;2.00;;;19.00;65.70;19.70;101490.00;;;;5012746;28;20553;-52
2023/09/25 08:16:31;;;;;;;5.20;2.00;;;18.90;65.60;19.80;101490.00;;;;5011592;28;20190;-50
2023/09/25 08:18:57;;;;;;;3.17;2.20;;;19.00;65.60;19.80;101488.00;;;;5012483;28;20585;-51
2023/09/25 08:21:24;;;;;;;3.27;1.97;;;19.00;65.60;19.80;101488.00;;;;5012443;28;20195;-51
2023/09/25 08:23:50;;;;;;;4.47;2.20;;;19.00;65.70;19.80;101490.00;;;;5012607;28;20218;-51
2023/09/25 08:26:16;;;;;;;3.03;1.80;;;19.00;65.70;19.80;101491.00;;;;5011337;28;20176;-51
2023/09/25 08:28:42;;;;;;;1.90;1.70;;;19.00;65.70;19.80;101485.00;;;;5012350;28;20192;-50
2023/09/25 08:31:08;;;;;;;2.83;1.87;;;19.00;65.70;19.80;101492.00;;;;5012633;28;20286;-51
2023/09/25 08:33:33;;;;;;;2.27;1.70;;;19.00;66.60;19.70;101493.00;;;;5012278;28;20638;-51
2023/09/25 08:35:59;;;;;;;2.93;1.90;;;19.00;65.80;19.80;101494.00;;;;5010890;28;20187;-51
2023/09/25 08:38:25;;;;;;;2.20;1.90;;;19.00;65.70;19.80;101494.00;;;;5009070;28;20678;-52
2023/09/25 08:40:51;;;;;;;3.27;2.13;;;19.00;65.80;19.70;101506.00;;;;5012225;28;20206;-51
2023/09/25 08:43:17;;;;;;;2.57;1.80;;;19.00;66.00;19.80;101490.00;;;;4978308;28;20179;-51
2023/09/25 08:45:43;;;;;;;3.93;2.20;;;19.00;66.10;19.80;101486.00;;;;5012039;28;20266;-50
2023/09/25 08:48:10;;;;;;;6.10;1.70;;;19.00;66.20;19.80;101490.00;;;;5010823;28;20739;-52
2023/09/25 08:50:39;;;;;;;2.00;1.67;;;19.00;66.10;19.80;101495.00;;;;5008305;28;20180;-51
2023/09/25 08:53:06;;;;;;;4.20;1.90;;;19.00;66.20;19.80;101507.00;;;;5009168;28;20185;-51
2023/09/25 08:55:32;;;;;;;3.77;1.73;;;19.00;66.30;19.80;101484.00;;;;5012213;28;20667;-52
2023/09/25 08:57:59;;;;;;;2.40;1.77;;;19.00;66.40;19.80;101497.00;;;;5013598;28;20196;-52
2023/09/25 09:00:25;;;;;;;2.00;1.70;;;19.00;66.30;19.80;101480.00;;;;4979353;28;20180;-52
2023/09/25 09:02:50;;;;;;;1.97;1.77;;;19.00;66.30;19.80;101478.00;;;;5010793;28;20183;-51
2023/09/25 09:05:16;;;;;;;2.73;1.93;;;19.00;66.20;19.80;101491.00;;;;5011141;28;20203;-51
2023/09/25 09:08:11;;;;;;;2.53;2.00;;;19.00;66.30;19.90;101491.00;;;;4994019;28;20277;-51
2023/09/25 09:10:38;;;;;;;2.57;2.00;;;19.00;66.20;19.90;101493.00;;;;5018651;28;20180;-51
2023/09/25 09:13:09;;;;;;;3.73;1.90;;;19.10;66.50;19.80;101495.00;;;;5024615;28;20799;-51
2023/09/25 09:15:35;;;;;;;8.43;2.10;;;19.00;66.70;19.80;101484.00;;;;5010276;28;20639;-50
2023/09/25 09:18:23;;;;;;;3.73;2.10;;;19.00;67.20;19.80;101494.00;;;;5011132;28;20592;-51
2023/09/25 09:20:49;;;;;;;5.60;2.20;;;19.00;67.00;19.80;101490.00;;;;5011094;28;20212;-51
2023/09/25 09:23:15;;;;;;;4.13;2.30;;;19.10;67.00;19.90;101494.00;;;;4993357;28;20188;-51
2023/09/25 09:25:45;;;;;;;1.90;1.80;;;19.00;66.80;19.90;101484.00;;;;4993924;28;20205;-50
2023/09/25 09:28:11;;;;;;;5.07;2.10;;;19.00;66.80;19.90;101486.00;;;;5009993;28;20584;-51
2023/09/25 09:30:37;;;;;;;5.17;2.10;;;19.10;67.00;19.90;101478.00;;;;5010531;28;20180;-51
2023/09/25 09:33:07;;;;;;;5.13;2.03;;;19.10;67.60;19.90;101481.00;;;;5009957;28;20191;-51
2023/09/25 09:35:32;;;;;;;2.13;1.80;;;19.10;67.40;19.90;101479.00;;;;5009300;28;20187;-52
2023/09/25 09:37:58;;;;;;;5.90;2.43;;;19.10;67.60;19.90;101469.00;;;;5010899;28;20207;-51
2023/09/25 09:40:25;;;;;;;3.87;1.80;;;19.10;67.30;20.00;101471.00;;;;5010940;28;20177;-51
2023/09/25 09:42:51;;;;;;;6.10;2.13;;;19.10;67.40;20.00;101452.00;;;;5009548;28;20195;-51
2023/09/25 09:45:21;;;;;;;3.30;1.83;;;19.10;67.30;20.00;101473.00;;;;4977148;28;20652;-51
2023/09/25 09:47:48;;;;;;;3.00;1.90;;;19.10;68.00;20.00;101470.00;;;;5009028;28;20242;-50
2023/09/25 09:50:22;;;;;;;2.23;1.80;;;19.10;67.30;20.00;101475.00;;;;5010079;28;20331;-51
2023/09/25 09:52:48;;;;;;;3.37;1.80;;;19.20;67.50;20.00;101475.00;;;;5011054;28;20194;-51
2023/09/25 09:55:14;;;;;;;5.63;2.03;;;19.20;67.40;20.00;101469.00;;;;5009875;28;20658;-51
2023/09/25 09:57:41;;;;;;;4.17;2.00;;;19.20;67.70;20.00;101468.00;;;;5010022;28;20302;-52
2023/09/25 10:00:07;;;;;;;5.77;2.00;;;19.20;68.10;20.00;101462.00;;;;5012324;28;20180;-52
2023/09/25 10:02:33;;;;;;;5.07;2.03;;;19.20;68.20;20.00;101454.00;;;;5009356;28;20211;-53
2023/09/25 10:04:59;;;;;;;5.57;2.00;;;19.20;68.00;20.00;101456.00;;;;4993238;28;20184;-53
2023/09/25 10:07:26;;;;;;;4.33;2.03;;;19.30;68.40;20.10;101456.00;;;;5009610;28;20676;-52
2023/09/25 10:10:04;;;;;;;3.33;1.80;;;19.30;68.40;20.00;101462.00;;;;4993135;28;20270;-52
2023/09/25 10:12:49;;;;;;;2.60;1.90;;;19.30;68.70;20.10;101446.00;;;;5008941;28;20594;-53
2023/09/25 10:15:22;;;;;;;3.50;2.00;;;19.30;68.70;20.10;101447.00;;;;5009552;28;20183;-53
2023/09/25 10:17:48;;;;;;;3.47;2.10;;;19.20;68.50;20.10;101452.00;;;;5010100;28;20212;-52
2023/09/25 10:20:38;;;;;;;4.10;1.90;;;19.30;68.60;20.10;101446.00;;;;5010146;28;20184;-53
2023/09/25 10:23:06;;;;;;;3.40;1.80;;;19.30;68.70;20.10;101445.00;;;;5009960;28;20180;-52
2023/09/25 10:25:45;;;;;;;3.50;2.10;;;19.30;68.60;20.10;101357.00;;;;5009865;28;20196;-54
2023/09/25 10:28:18;;;;;;;3.77;1.97;;;19.30;68.40;20.20;101435.00;;;;5008582;28;20615;-52
2023/09/25 10:30:43;;;;;;;3.33;2.07;;;19.40;68.70;20.20;101444.00;;;;5009455;28;20193;-52
2023/09/25 10:33:09;;;;;;;2.30;1.70;;;19.40;68.60;20.20;101445.00;;;;5009041;28;20231;-52
2023/09/25 10:35:49;;;;;;;1.73;1.63;;;19.40;68.70;20.20;101444.00;;;;5009207;28;20239;-52
2023/09/25 10:38:21;;;;;;;2.03;1.70;;;19.40;68.60;20.30;101430.00;;;;5007773;28;20207;-53
2023/09/25 10:40:51;;;;;;;3.77;1.97;;;19.50;68.80;20.30;101446.00;;;;5007570;28;20685;-52
2023/09/25 10:43:19;;;;;;;2.03;1.80;;;19.50;68.90;20.30;101429.00;;;;5009903;28;20198;-52
2023/09/25 10:45:45;;;;;;;2.53;1.87;;;19.50;68.90;20.30;101437.00;;;;5008562;28;20318;-52